Time;durP1;ratioP1;P1;durP2;ratioP2;P2;SDS_P1;SDS_P2;PMS_P1;PMS_P2;Temp;Humidity;BMP_temperature;BMP_pressure;BME280_temperature;BME280_humidity;BME280_pressure;Samples;Min_cycle;Max_cycle;Signal;HPM_P1;HPM_P2
2021/01/10 00:02:18;;;;;;;24.25;14.60;;;;;;;-3.69;67.83;97148.13;4938141;29;20052;-80
2021/01/10 00:04:50;;;;;;;22.02;13.77;;;;;;;-3.69;68.07;97160.88;4939183;29;20106;-78
2021/01/10 00:07:17;;;;;;;26.75;12.80;;;;;;;-3.70;67.82;97156.66;4944317;29;20058;-80
2021/01/10 00:09:43;;;;;;;20.70;11.82;;;;;;;-3.66;68.45;97147.94;4946773;29;20047;-79
2021/01/10 00:12:10;;;;;;;23.52;14.48;;;;;;;-3.62;68.43;97139.22;4945787;29;20066;-79
2021/01/10 00:14:37;;;;;;;25.70;15.00;;;;;;;-3.56;68.39;97144.00;4946087;29;20052;-79
2021/01/10 00:17:05;;;;;;;22.13;13.30;;;;;;;-3.56;68.72;97146.56;4943473;29;20075;-79
2021/01/10 00:19:32;;;;;;;25.40;12.75;;;;;;;-3.54;68.54;97134.56;4941932;28;20114;-79
2021/01/10 00:21:59;;;;;;;18.67;11.10;;;;;;;-3.52;68.65;97146.31;4937654;29;20521;-79
2021/01/10 00:24:26;;;;;;;18.25;10.57;;;;;;;-3.49;68.46;97147.88;4936632;29;20048;-79
2021/01/10 00:26:52;;;;;;;21.80;11.68;;;;;;;-3.44;68.58;97152.72;4938032;29;20487;-79
2021/01/10 00:29:19;;;;;;;23.10;11.95;;;;;;;-3.41;68.72;97150.00;4937439;29;20158;-79
2021/01/10 00:31:46;;;;;;;18.55;11.48;;;;;;;-3.37;69.05;97142.13;4936803;29;20514;-79
2021/01/10 00:34:12;;;;;;;19.83;10.98;;;;;;;-3.37;68.38;97147.25;4936975;29;20054;-80
2021/01/10 00:36:39;;;;;;;17.88;10.68;;;;;;;-3.39;68.44;97154.16;4936669;29;20442;-79
2021/01/10 00:39:06;;;;;;;20.15;12.40;;;;;;;-3.38;68.78;97153.22;4936187;29;20055;-79
2021/01/10 00:41:37;;;;;;;16.98;10.95;;;;;;;-3.35;69.03;97145.41;4936776;29;20058;-79
2021/01/10 00:44:05;;;;;;;21.77;12.57;;;;;;;-3.29;68.90;97151.91;4936779;29;20079;-78
2021/01/10 00:46:32;;;;;;;17.60;9.80;;;;;;;-3.25;68.79;97152.59;4936010;29;20450;-79
2021/01/10 00:48:59;;;;;;;20.98;11.48;;;;;;;-3.22;68.71;97152.41;4935629;29;20052;-79
2021/01/10 00:51:25;;;;;;;19.35;11.80;;;;;;;-3.21;68.96;97157.44;4935861;29;20395;-79
2021/01/10 00:53:52;;;;;;;20.30;12.35;;;;;;;-3.22;68.94;97155.78;4936319;29;20189;-79
2021/01/10 00:56:19;;;;;;;18.42;11.98;;;;;;;-3.21;69.19;97148.97;4935782;29;20422;-79
2021/01/10 00:58:46;;;;;;;21.80;11.25;;;;;;;-3.17;69.49;97156.38;4936131;29;20048;-79
2021/01/10 01:01:12;;;;;;;32.55;15.93;;;;;;;-3.12;69.27;97158.66;4935741;29;20047;-79
2021/01/10 01:03:39;;;;;;;26.23;14.25;;;;;;;-3.11;69.31;97165.41;4935979;29;20059;-79
2021/01/10 01:06:11;;;;;;;24.50;13.35;;;;;;;-3.08;69.51;97162.69;4935850;29;20052;-79
2021/01/10 01:08:37;;;;;;;25.20;13.57;;;;;;;-3.05;69.35;97165.06;4935854;29;20090;-79
2021/01/10 01:11:04;;;;;;;20.30;11.90;;;;;;;-3.02;69.06;97171.75;4935849;29;20055;-79
2021/01/10 01:13:33;;;;;;;19.45;10.68;;;;;;;-3.00;69.04;97173.28;4935867;29;20080;-78
2021/01/10 01:15:59;;;;;;;16.33;10.50;;;;;;;-3.00;68.81;97167.38;4935675;29;20074;-79
2021/01/10 01:18:26;;;;;;;14.18;9.15;;;;;;;-2.99;69.13;97164.75;4935399;29;20079;-79
2021/01/10 01:20:53;;;;;;;15.38;9.43;;;;;;;-2.98;69.27;97171.47;4935315;29;20276;-79
2021/01/10 01:23:19;;;;;;;15.18;9.35;;;;;;;-2.97;69.11;97168.03;4936098;29;20400;-79
2021/01/10 01:25:46;;;;;;;15.80;10.68;;;;;;;-2.95;69.13;97166.22;4935720;29;20074;-79
2021/01/10 01:28:12;;;;;;;17.50;10.48;;;;;;;-2.90;69.32;97164.22;4935414;29;20048;-79
2021/01/10 01:30:39;;;;;;;16.42;10.45;;;;;;;-2.86;69.26;97164.06;4935369;29;20056;-79
2021/01/10 01:33:06;;;;;;;19.13;11.05;;;;;;;-2.83;69.31;97164.72;4935732;29;20055;-79
2021/01/10 01:35:33;;;;;;;16.70;10.65;;;;;;;-2.83;69.04;97158.78;4935478;29;20063;-79
2021/01/10 01:38:01;;;;;;;16.63;10.63;;;;;;;-2.82;69.24;97162.97;4935454;29;20059;-79
2021/01/10 01:40:27;;;;;;;16.05;10.57;;;;;;;-2.79;69.79;97165.38;4935443;29;20055;-78
2021/01/10 01:42:54;;;;;;;18.60;12.10;;;;;;;-2.76;69.52;97167.75;4935646;29;20048;-79
2021/01/10 01:45:20;;;;;;;20.35;10.50;;;;;;;-2.71;69.39;97168.34;4935479;29;20430;-79
2021/01/10 01:47:48;;;;;;;19.85;11.45;;;;;;;-2.68;69.58;97169.91;4934963;29;20517;-79
2021/01/10 01:50:15;;;;;;;16.48;10.10;;;;;;;-2.67;69.24;97174.91;4938425;29;20342;-81
2021/01/10 01:52:42;;;;;;;20.23;12.10;;;;;;;-2.67;69.20;97177.44;4940889;29;20074;-81
2021/01/10 01:55:09;;;;;;;15.80;10.80;;;;;;;-2.68;69.00;97177.56;4940036;29;20051;-81
2021/01/10 01:57:38;;;;;;;19.95;10.73;;;;;;;-2.72;69.05;97176.91;4939399;29;20071;-80
2021/01/10 02:00:06;;;;;;;16.00;10.57;;;;;;;-2.72;69.34;97180.25;4940580;29;20052;-81
2021/01/10 02:02:33;;;;;;;17.90;10.75;;;;;;;-2.71;69.36;97176.00;4942923;29;20051;-81
2021/01/10 02:05:07;;;;;;;15.77;9.88;;;;;;;-2.72;69.49;97182.00;4942653;29;20074;-81
2021/01/10 02:07:40;;;;;;;17.50;10.82;;;;;;;-2.70;69.73;97180.19;4942249;29;20054;-81
2021/01/10 02:10:09;;;;;;;18.52;12.07;;;;;;;-2.66;69.54;97178.28;4943096;29;20112;-81
2021/01/10 02:12:37;;;;;;;17.05;11.38;;;;;;;-2.64;69.75;97179.84;4943194;29;20054;-81
2021/01/10 02:15:09;;;;;;;17.75;10.45;;;;;;;-2.62;70.14;97172.13;4942510;29;20123;-80
2021/01/10 02:17:36;;;;;;;22.05;12.70;;;;;;;-2.57;69.80;97176.03;4942760;29;20503;-81
2021/01/10 02:20:07;;;;;;;23.20;13.48;;;;;;;-2.53;70.15;97176.69;4942728;29;20503;-81
2021/01/10 02:22:42;;;;;;;21.42;13.48;;;;;;;-2.54;69.31;97172.47;4942187;29;20055;-80
2021/01/10 02:25:11;;;;;;;21.55;13.90;;;;;;;-2.54;69.92;97175.84;4941684;29;20062;-81
2021/01/10 02:27:38;;;;;;;20.55;13.93;;;;;;;-2.52;69.80;97174.03;4941557;29;20052;-81
2021/01/10 02:30:06;;;;;;;19.33;11.68;;;;;;;-2.51;69.87;97169.78;4942041;29;20051;-81
2021/01/10 02:32:35;;;;;;;22.92;12.45;;;;;;;-2.49;70.15;97171.31;4941427;29;20048;-81
2021/01/10 02:35:03;;;;;;;19.25;12.60;;;;;;;-2.47;69.96;97170.41;4942280;29;20048;-81
2021/01/10 02:37:49;;;;;;;18.52;11.00;;;;;;;-2.48;69.79;97167.03;4942418;29;20062;-81
2021/01/10 02:40:23;;;;;;;17.70;11.10;;;;;;;-2.50;69.85;97164.56;4943474;29;20079;-81
2021/01/10 02:42:57;;;;;;;19.88;12.05;;;;;;;-2.52;69.66;97161.25;4941740;29;20056;-81
2021/01/10 02:45:25;;;;;;;28.38;15.18;;;;;;;-2.52;69.56;97163.81;4940918;29;20575;-81
2021/01/10 02:47:52;;;;;;;26.45;15.52;;;;;;;-2.50;69.75;97166.28;4941205;29;20115;-81
2021/01/10 02:50:19;;;;;;;28.33;17.45;;;;;;;-2.46;69.98;97166.94;4940963;29;20055;-81
2021/01/10 02:52:47;;;;;;;30.85;18.17;;;;;;;-2.43;70.05;97154.00;4941681;29;20055;-80
2021/01/10 02:55:16;;;;;;;27.73;15.60;;;;;;;-2.41;69.78;97159.84;4941643;29;20055;-81
2021/01/10 02:57:47;;;;;;;32.33;18.42;;;;;;;-2.41;69.90;97164.94;4941462;29;20062;-81
2021/01/10 03:00:15;;;;;;;29.08;17.27;;;;;;;-2.38;70.23;97159.69;4941464;29;20082;-80
2021/01/10 03:02:46;;;;;;;33.13;18.08;;;;;;;-2.34;70.31;97161.97;4941286;29;20087;-81
2021/01/10 03:05:13;;;;;;;33.60;17.58;;;;;;;-2.33;70.08;97161.03;4941820;29;20055;-81
2021/01/10 03:07:41;;;;;;;30.48;18.90;;;;;;;-2.32;70.19;97154.19;4941582;29;20426;-81
2021/01/10 03:10:11;;;;;;;31.35;18.42;;;;;;;-2.28;70.22;97153.09;4940757;29;20058;-81
2021/01/10 03:12:37;;;;;;;25.50;14.77;;;;;;;-2.30;69.89;97144.72;4940707;29;20094;-81
2021/01/10 03:15:07;;;;;;;23.15;12.95;;;;;;;-2.33;70.18;97143.16;4941689;29;20087;-81
2021/01/10 03:17:35;;;;;;;19.08;12.55;;;;;;;-2.33;70.33;97153.38;4941744;29;20078;-81
2021/01/10 03:20:06;;;;;;;20.73;12.77;;;;;;;-2.29;70.06;97143.81;4940180;29;20060;-81
2021/01/10 03:22:32;;;;;;;20.00;12.32;;;;;;;-2.25;70.53;97149.56;4940822;29;20051;-81
2021/01/10 03:24:59;;;;;;;20.63;12.77;;;;;;;-2.22;70.46;97147.66;4940449;29;20098;-81
2021/01/10 03:27:25;;;;;;;19.42;13.13;;;;;;;-2.18;70.52;97156.78;4940345;29;20048;-81
2021/01/10 03:29:52;;;;;;;21.10;13.35;;;;;;;-2.17;70.48;97137.97;4939738;29;20422;-80
2021/01/10 03:32:20;;;;;;;22.65;13.23;;;;;;;-2.16;70.71;97144.75;4940144;29;20144;-81
2021/01/10 03:34:47;;;;;;;22.83;13.90;;;;;;;-2.14;70.72;97148.03;4940790;28;20052;-81
2021/01/10 03:37:14;;;;;;;24.45;14.60;;;;;;;-2.09;70.81;97142.66;4940047;29;20062;-81
2021/01/10 03:39:40;;;;;;;24.73;15.88;;;;;;;-2.09;70.80;97146.03;4959789;23;20540;-77
2021/01/10 03:42:07;;;;;;;22.02;14.70;;;;;;;-2.07;70.35;97145.94;4955384;29;20047;-76
2021/01/10 03:44:34;;;;;;;22.95;14.20;;;;;;;-2.09;70.47;97146.03;4955537;29;20058;-77
2021/01/10 03:47:02;;;;;;;24.60;15.80;;;;;;;-2.08;70.38;97145.13;4955570;29;20082;-76
2021/01/10 03:49:30;;;;;;;22.38;13.50;;;;;;;-2.06;70.35;97139.91;4944456;29;20138;-76
2021/01/10 03:51:56;;;;;;;26.67;15.70;;;;;;;-2.07;70.56;97140.81;4936509;29;20524;-77
2021/01/10 03:54:22;;;;;;;29.45;16.15;;;;;;;-2.02;70.75;97135.44;4936475;29;20494;-75
2021/01/10 03:56:49;;;;;;;22.90;15.02;;;;;;;-2.01;70.56;97129.41;4936206;29;20062;-76
2021/01/10 03:59:16;;;;;;;25.33;15.18;;;;;;;-1.99;70.66;97130.97;4935777;29;20052;-76
2021/01/10 04:01:43;;;;;;;30.70;16.10;;;;;;;-1.96;70.74;97135.09;4936535;29;20139;-77
2021/01/10 04:04:09;;;;;;;25.75;15.73;;;;;;;-1.96;70.92;97137.66;4936109;29;20052;-77
2021/01/10 04:06:37;;;;;;;24.50;14.90;;;;;;;-1.96;70.75;97130.78;4937633;29;20056;-76
2021/01/10 04:09:05;;;;;;;26.98;14.18;;;;;;;-1.92;71.05;97136.56;4942215;29;20051;-76
2021/01/10 04:11:31;;;;;;;22.77;14.85;;;;;;;-1.89;71.19;97132.06;4941913;29;20055;-77
2021/01/10 04:13:58;;;;;;;23.15;14.38;;;;;;;-1.88;71.05;97123.50;4941711;29;20051;-77
2021/01/10 04:16:25;;;;;;;24.90;15.00;;;;;;;-1.85;70.96;97132.72;4937574;29;20126;-77
2021/01/10 04:18:51;;;;;;;23.50;15.18;;;;;;;-1.85;70.97;97130.16;4935979;29;20051;-76
2021/01/10 04:21:18;;;;;;;27.80;16.02;;;;;;;-1.85;71.00;97127.59;4935607;29;20063;-76
2021/01/10 04:23:45;;;;;;;26.65;16.00;;;;;;;-1.84;71.08;97129.22;4935558;29;20079;-76
2021/01/10 04:26:12;;;;;;;24.30;14.93;;;;;;;-1.84;71.31;97119.00;4935823;29;20494;-77
2021/01/10 04:28:39;;;;;;;24.48;16.45;;;;;;;-1.82;71.12;97124.03;4935905;29;20055;-76
2021/01/10 04:31:06;;;;;;;30.02;18.85;;;;;;;-1.82;70.65;97124.84;4935712;29;20056;-77
2021/01/10 04:33:34;;;;;;;26.90;17.33;;;;;;;-1.81;70.99;97123.94;4935903;29;20083;-76
2021/01/10 04:36:01;;;;;;;23.98;17.63;;;;;;;-1.82;71.20;97122.28;4935835;29;20051;-76
2021/01/10 04:38:28;;;;;;;23.80;16.17;;;;;;;-1.80;71.13;97120.47;4935408;29;20453;-76
2021/01/10 04:40:58;;;;;;;25.55;16.52;;;;;;;-1.82;70.86;97124.84;4935310;29;20059;-77
2021/01/10 04:43:24;;;;;;;26.58;16.15;;;;;;;-1.86;70.90;97125.94;4935722;29;20047;-76
2021/01/10 04:45:51;;;;;;;28.75;15.95;;;;;;;-1.90;70.85;97115.09;4935495;29;20056;-77
2021/01/10 04:48:19;;;;;;;28.85;17.13;;;;;;;-1.89;71.09;97126.13;4935385;29;20399;-76
2021/01/10 04:50:46;;;;;;;29.02;17.42;;;;;;;-1.88;71.46;97127.75;4935165;29;20059;-77
2021/01/10 04:53:18;;;;;;;25.27;15.80;;;;;;;-1.85;71.87;97126.78;4935430;29;20048;-76
2021/01/10 04:55:46;;;;;;;27.60;17.83;;;;;;;-1.80;71.74;97127.31;4935555;29;20056;-76
2021/01/10 04:58:14;;;;;;;28.15;16.63;;;;;;;-1.77;71.92;97129.69;4935322;29;20063;-76
2021/01/10 05:00:41;;;;;;;25.98;15.88;;;;;;;-1.75;72.07;97138.94;4934987;29;20062;-76
2021/01/10 05:03:11;;;;;;;29.13;17.27;;;;;;;-1.72;71.88;97138.72;4935311;29;20061;-76
2021/01/10 05:05:39;;;;;;;25.58;15.73;;;;;;;-1.70;71.58;97139.47;4935299;29;20514;-75
2021/01/10 05:08:07;;;;;;;26.23;16.77;;;;;;;-1.70;71.93;97134.34;4935204;29;20418;-77
2021/01/10 05:10:34;;;;;;;24.25;16.00;;;;;;;-1.69;71.88;97142.84;4935129;29;20051;-76
2021/01/10 05:13:02;;;;;;;21.92;15.13;;;;;;;-1.68;71.86;97144.50;4935295;29;20483;-77
2021/01/10 05:15:30;;;;;;;23.88;15.35;;;;;;;-1.66;71.86;97148.59;4935120;29;20047;-76
2021/01/10 05:17:58;;;;;;;24.90;14.90;;;;;;;-1.66;71.99;97143.47;4935290;29;20139;-77
2021/01/10 05:20:26;;;;;;;24.02;15.30;;;;;;;-1.64;72.26;97147.66;4934617;29;20054;-77
2021/01/10 05:22:52;;;;;;;26.92;16.65;;;;;;;-1.63;72.09;97145.03;4935131;29;20060;-76
2021/01/10 05:25:19;;;;;;;25.60;15.55;;;;;;;-1.63;72.08;97154.44;4934928;29;20059;-76
2021/01/10 05:27:47;;;;;;;23.90;15.70;;;;;;;-1.67;71.79;97149.50;4935120;29;20052;-77
2021/01/10 05:30:16;;;;;;;23.95;16.17;;;;;;;-1.72;71.80;97146.41;4934666;29;20530;-75
2021/01/10 05:32:57;;;;;;;24.35;15.32;;;;;;;-1.75;72.18;97154.28;4935190;29;20048;-76
2021/01/10 05:35:24;;;;;;;24.17;15.07;;;;;;;-1.74;72.08;97160.19;4937340;29;20059;-77
2021/01/10 05:37:55;;;;;;;24.38;15.48;;;;;;;-1.74;72.22;97150.78;4938889;29;20506;-77
2021/01/10 05:40:28;;;;;;;23.02;15.20;;;;;;;-1.73;72.19;97157.56;4938358;29;20426;-77
2021/01/10 05:42:56;;;;;;;20.88;14.27;;;;;;;-1.70;72.51;97146.31;4938633;29;20517;-76
2021/01/10 05:45:43;;;;;;;22.55;14.70;;;;;;;-1.68;72.65;97154.72;4939523;29;20522;-82
2021/01/10 05:48:13;;;;;;;23.92;15.18;;;;;;;-1.64;72.69;97155.34;4930276;29;20050;-77
2021/01/10 05:50:47;;;;;;;20.90;14.23;;;;;;;-1.64;72.39;97150.22;4942269;29;20043;-82
2021/01/10 05:54:11;;;;;;;21.83;14.55;;;;;;;-1.63;72.78;97147.59;4944772;29;20058;-82
2021/01/10 05:57:59;;;;;;;26.58;16.52;;;;;;;-1.61;72.89;97155.19;4914719;29;20058;-83
2021/01/10 06:00:33;;;;;;;42.92;22.33;;;;;;;-1.63;72.32;97157.00;4953605;29;20071;-83
2021/01/10 06:03:13;;;;;;;102.70;43.33;;;;;;;-1.63;72.43;97157.00;4953482;29;20051;-82
2021/01/10 06:06:01;;;;;;;101.00;42.83;;;;;;;-1.62;72.65;97156.06;4954593;29;20087;-83
2021/01/10 06:08:32;;;;;;;44.80;20.95;;;;;;;-1.62;72.48;97153.53;4936635;29;20058;-82
2021/01/10 06:11:22;;;;;;;31.98;18.48;;;;;;;-1.60;72.43;97144.00;4934876;29;20079;-83
2021/01/10 06:17:26;;;;;;;25.20;14.50;;;;;;;-1.58;72.50;97149.88;4955756;29;20058;-83
2021/01/10 06:20:24;;;;;;;24.15;15.23;;;;;;;-1.59;72.50;97158.47;4952138;29;20079;-81
2021/01/10 06:23:44;;;;;;;22.45;14.55;;;;;;;-1.59;72.76;97148.22;4951530;29;20054;-82
2021/01/10 06:30:23;;;;;;;24.05;15.20;;;;;;;-1.56;72.38;97158.28;4936526;29;20522;-79
2021/01/10 06:32:58;;;;;;;22.23;14.48;;;;;;;-1.57;72.50;97162.56;4937995;29;20067;-79
2021/01/10 06:35:27;;;;;;;25.38;16.40;;;;;;;-1.55;72.45;97159.91;4937787;29;20059;-79
2021/01/10 06:37:56;;;;;;;28.15;16.60;;;;;;;-1.54;72.49;97161.56;4937764;29;20498;-78
2021/01/10 06:40:25;;;;;;;26.17;16.52;;;;;;;-1.54;72.28;97157.25;4937272;29;20055;-79
2021/01/10 06:42:54;;;;;;;25.02;16.60;;;;;;;-1.52;72.56;97149.50;4937274;29;20059;-79
2021/01/10 06:45:24;;;;;;;25.15;16.30;;;;;;;-1.51;72.37;97153.69;4936800;29;20058;-78
2021/01/10 06:47:53;;;;;;;28.13;16.85;;;;;;;-1.56;71.66;97156.53;4937090;29;20138;-78
2021/01/10 06:50:21;;;;;;;25.20;16.27;;;;;;;-1.61;71.85;97155.19;4936626;29;20620;-79
2021/01/10 06:52:50;;;;;;;26.33;17.25;;;;;;;-1.67;71.90;97159.72;4937143;29;20052;-78
2021/01/10 06:55:17;;;;;;;27.27;16.73;;;;;;;-1.69;72.01;97161.56;4937151;29;20059;-78
2021/01/10 06:57:47;;;;;;;26.33;16.70;;;;;;;-1.69;71.87;97161.56;4936979;29;20095;-78
2021/01/10 07:00:14;;;;;;;26.35;16.42;;;;;;;-1.70;71.78;97166.78;4936928;29;20052;-78
2021/01/10 07:03:09;;;;;;;23.90;15.25;;;;;;;-1.74;71.55;97162.75;4937163;29;20070;-78
2021/01/10 07:05:58;;;;;;;20.42;13.52;;;;;;;-1.75;71.23;97171.31;4938886;29;20055;-77
2021/01/10 07:08:35;;;;;;;16.63;11.13;;;;;;;-1.78;71.25;97174.09;4938209;29;20054;-79
2021/01/10 07:11:45;;;;;;;16.58;11.13;;;;;;;-1.81;71.26;97177.66;4961531;28;20087;-82
2021/01/10 07:14:28;;;;;;;13.95;9.00;;;;;;;-1.81;71.11;97179.38;4961889;28;20057;-78
2021/01/10 07:17:11;;;;;;;12.68;8.60;;;;;;;-1.83;70.46;97187.16;4958661;29;20078;-78
2021/01/10 07:19:40;;;;;;;12.50;8.30;;;;;;;-1.84;70.86;97195.72;4963885;28;20103;-79
2021/01/10 07:22:22;;;;;;;11.10;7.28;;;;;;;-1.85;70.39;97194.06;4949290;29;20058;-78
2021/01/10 07:24:49;;;;;;;13.77;8.77;;;;;;;-1.85;70.66;97194.06;4941542;29;20078;-77
2021/01/10 07:27:30;;;;;;;10.40;6.72;;;;;;;-1.90;70.27;97202.03;4940940;29;20522;-78
2021/01/10 07:29:59;;;;;;;10.85;6.95;;;;;;;-1.90;70.67;97203.78;4936306;29;20099;-78
2021/01/10 07:32:34;;;;;;;8.90;6.40;;;;;;;-1.91;70.34;97199.53;4936907;29;20052;-77
2021/01/10 07:35:04;;;;;;;10.40;7.00;;;;;;;-1.90;70.11;97201.22;4936950;29;20142;-77
2021/01/10 07:37:31;;;;;;;10.13;7.10;;;;;;;-1.88;70.56;97201.91;4936539;29;20055;-77
2021/01/10 07:40:00;;;;;;;8.77;6.85;;;;;;;-1.88;70.51;97199.34;4935766;29;20047;-77
2021/01/10 07:42:31;;;;;;;12.68;8.95;;;;;;;-1.88;70.11;97196.78;4936344;29;20051;-78
2021/01/10 07:45:00;;;;;;;12.25;9.02;;;;;;;-1.90;70.06;97196.09;4936655;29;20055;-77
2021/01/10 07:47:43;;;;;;;13.95;9.15;;;;;;;-1.89;70.26;97195.16;4936118;29;20060;-77
2021/01/10 07:50:20;;;;;;;13.40;9.45;;;;;;;-1.85;72.01;97199.19;4935868;29;20063;-78
2021/01/10 07:52:52;;;;;;;13.30;9.75;;;;;;;-1.84;70.32;97197.44;4936485;29;20062;-77
2021/01/10 07:55:30;;;;;;;11.37;8.17;;;;;;;-1.84;70.02;97192.34;4936336;29;20047;-77
2021/01/10 07:58:16;;;;;;;17.65;9.98;;;;;;;-1.83;70.44;97194.81;4936080;29;20282;-77
2021/01/10 08:00:53;;;;;;;12.05;8.63;;;;;;;-1.79;70.09;97198.00;4935576;29;20057;-77
2021/01/10 08:03:23;;;;;;;10.93;8.18;;;;;;;-1.80;69.97;97191.25;4936078;29;20061;-77
2021/01/10 08:06:03;;;;;;;11.50;7.53;;;;;;;-1.81;69.66;97194.72;4935939;29;20055;-78
2021/01/10 08:08:48;;;;;;;10.38;7.20;;;;;;;-1.82;69.87;97193.06;4935652;29;20521;-78
2021/01/10 08:11:29;;;;;;;12.27;7.53;;;;;;;-1.83;70.01;97204.22;4935784;29;20404;-78
2021/01/10 08:13:56;;;;;;;10.63;7.57;;;;;;;-1.84;70.15;97198.28;4940201;29;20051;-77
2021/01/10 08:16:33;;;;;;;14.27;8.88;;;;;;;-1.83;70.17;97201.66;4937684;29;20090;-79
2021/01/10 08:19:01;;;;;;;11.10;8.10;;;;;;;-1.80;70.26;97202.28;4935907;29;20083;-77
2021/01/10 08:21:28;;;;;;;10.90;8.07;;;;;;;-1.77;70.72;97196.16;4935450;29;20511;-78
2021/01/10 08:23:55;;;;;;;13.50;9.73;;;;;;;-1.74;70.69;97199.38;4935550;29;20561;-78
2021/01/10 08:26:22;;;;;;;14.82;10.88;;;;;;;-1.70;71.22;97198.28;4940867;29;20056;-76
2021/01/10 08:28:51;;;;;;;17.90;12.38;;;;;;;-1.64;71.23;97198.81;4935855;29;20090;-79
2021/01/10 08:31:20;;;;;;;16.27;11.65;;;;;;;-1.60;71.41;97213.09;4935594;29;20059;-78
2021/01/10 08:33:48;;;;;;;17.63;10.77;;;;;;;-1.57;71.69;97207.81;4936215;29;20127;-78
2021/01/10 08:36:18;;;;;;;16.40;10.90;;;;;;;-1.53;71.76;97214.34;4935235;29;20076;-76
2021/01/10 08:38:46;;;;;;;18.15;12.82;;;;;;;-1.49;72.17;97201.31;4935788;29;20052;-79
2021/01/10 08:41:21;;;;;;;16.38;11.45;;;;;;;-1.44;72.20;97201.03;4935657;29;20059;-79
2021/01/10 08:43:49;;;;;;;16.38;10.55;;;;;;;-1.40;72.24;97206.78;4936168;29;20048;-78
2021/01/10 08:46:16;;;;;;;17.45;11.07;;;;;;;-1.35;72.34;97197.91;4935967;29;20059;-78
2021/01/10 08:48:43;;;;;;;16.48;10.65;;;;;;;-1.32;72.12;97196.91;4935443;29;20054;-78
2021/01/10 08:51:26;;;;;;;16.33;11.55;;;;;;;-1.30;72.22;97195.88;4935577;29;20052;-78
2021/01/10 08:53:53;;;;;;;;;;;;;;;-1.21;72.73;97198.81;4936013;29;20075;-78
2021/01/10 08:56:21;;;;;;;18.30;12.02;;;;;;;-1.20;72.36;97197.88;4935839;29;19922;-77
2021/01/10 08:58:52;;;;;;;15.85;9.77;;;;;;;-1.17;72.57;97197.72;4935687;29;20509;-77
2021/01/10 09:01:20;;;;;;;15.45;10.85;;;;;;;-1.13;72.71;97201.72;4935334;29;20052;-78
2021/01/10 09:03:58;;;;;;;16.95;11.10;;;;;;;-1.09;73.05;97205.75;4935665;29;20054;-78
2021/01/10 09:06:35;;;;;;;17.85;11.68;;;;;;;-1.05;72.85;97189.25;4935677;29;20055;-78
2021/01/10 09:09:05;;;;;;;18.15;12.45;;;;;;;-0.99;73.57;97188.88;4937039;29;20055;-78
2021/01/10 09:11:36;;;;;;;17.95;11.63;;;;;;;-0.95;73.71;97192.91;4939093;29;20055;-78
2021/01/10 09:14:09;;;;;;;19.30;11.73;;;;;;;-0.92;72.94;97197.84;4939294;29;20058;-77
2021/01/10 09:16:37;;;;;;;15.88;10.85;;;;;;;-0.91;72.91;97194.34;4939399;29;20527;-78
2021/01/10 09:19:06;;;;;;;17.73;11.52;;;;;;;-0.87;72.75;97193.25;4938995;29;20057;-78
2021/01/10 09:21:34;;;;;;;16.77;11.43;;;;;;;-0.84;72.86;97203.28;4938975;29;20062;-77
2021/01/10 09:24:02;;;;;;;13.88;9.52;;;;;;;-0.81;72.29;97207.38;4938790;29;20048;-77
2021/01/10 09:26:30;;;;;;;17.42;10.40;;;;;;;-0.77;72.55;97190.09;4956795;29;20409;-79
2021/01/10 09:28:58;;;;;;;12.93;9.73;;;;;;;-0.74;72.03;97192.50;4958007;28;20047;-77
2021/01/10 09:31:47;;;;;;;16.20;11.57;;;;;;;-0.69;72.89;97185.31;4958273;29;20044;-77
2021/01/10 09:34:15;;;;;;;15.02;10.32;;;;;;;-0.63;72.79;97182.38;4963366;28;20501;-78
2021/01/10 09:36:42;;;;;;;12.48;8.88;;;;;;;-0.59;72.19;97185.53;4969636;29;20051;-79
2021/01/10 09:39:09;;;;;;;14.82;8.68;;;;;;;-0.57;71.89;97192.22;4991510;23;20037;-78
2021/01/10 09:41:52;;;;;;;14.85;9.13;;;;;;;-0.53;71.72;97193.66;4967284;29;20047;-79
2021/01/10 09:44:19;;;;;;;17.15;10.60;;;;;;;-0.46;71.84;97196.66;4968569;29;20047;-81
2021/01/10 09:46:52;;;;;;;11.38;8.00;;;;;;;-0.43;70.87;97197.28;4968051;29;20150;-83
2021/01/10 09:49:20;;;;;;;13.68;8.90;;;;;;;-0.38;71.32;97193.59;4961521;29;20044;-78
2021/01/10 09:51:54;;;;;;;17.10;9.93;;;;;;;-0.35;70.89;97188.28;4946142;29;20048;-80
2021/01/10 09:54:22;;;;;;;15.55;9.85;;;;;;;-0.31;70.89;97192.28;4948093;29;20051;-81
2021/01/10 09:56:51;;;;;;;15.63;9.82;;;;;;;-0.29;70.78;97196.38;4947773;29;20044;-80
2021/01/10 09:59:39;;;;;;;13.48;9.05;;;;;;;-0.23;70.61;97185.75;4946450;29;20060;-80
2021/01/10 10:02:11;;;;;;;13.68;9.15;;;;;;;-0.17;70.46;97187.09;4947854;29;20086;-80
2021/01/10 10:04:39;;;;;;;16.40;10.05;;;;;;;-0.10;70.77;97183.19;4948738;29;20075;-84
2021/01/10 10:07:07;;;;;;;13.52;9.45;;;;;;;-0.04;70.59;97193.06;4949149;29;20052;-84
2021/01/10 10:09:47;;;;;;;13.32;9.15;;;;;;;0.02;69.93;97189.25;4948803;29;20048;-82
2021/01/10 10:12:15;;;;;;;13.48;9.20;;;;;;;0.05;69.72;97185.69;4948427;29;20063;-81
2021/01/10 10:15:07;;;;;;;12.88;8.57;;;;;;;0.06;69.12;97183.00;4947005;29;20090;-82
2021/01/10 10:17:36;;;;;;;12.05;8.88;;;;;;;0.07;69.33;97187.22;4937379;29;20071;-81
2021/01/10 10:20:05;;;;;;;11.27;7.57;;;;;;;0.05;68.89;97185.69;4945838;29;20418;-80
2021/01/10 10:22:34;;;;;;;12.73;9.30;;;;;;;-0.04;69.22;97182.78;4945637;29;20081;-81
2021/01/10 10:25:02;;;;;;;13.15;9.18;;;;;;;-0.06;69.30;97184.63;4948558;29;20051;-79
2021/01/10 10:27:30;;;;;;;12.73;8.77;;;;;;;-0.03;69.44;97184.44;4942725;29;20047;-80
2021/01/10 10:29:57;;;;;;;13.50;9.32;;;;;;;0.01;69.42;97184.25;4943381;29;20201;-76
2021/01/10 10:32:24;;;;;;;13.90;9.32;;;;;;;0.01;69.24;97182.50;4943987;29;20047;-77
2021/01/10 10:34:51;;;;;;;13.68;9.65;;;;;;;0.04;69.38;97182.28;4943566;29;20062;-78
2021/01/10 10:37:18;;;;;;;12.75;9.38;;;;;;;0.10;69.52;97178.50;4943132;29;20054;-79
2021/01/10 10:39:47;;;;;;;14.68;10.05;;;;;;;0.13;69.69;97185.97;4942454;29;20086;-77
2021/01/10 10:42:15;;;;;;;20.15;14.23;;;;;;;0.14;69.52;97169.66;4942133;29;20056;-78
2021/01/10 10:44:42;;;;;;;19.55;13.25;;;;;;;0.16;69.67;97172.97;4941973;29;20525;-80
2021/01/10 10:47:13;;;;;;;13.70;9.55;;;;;;;0.16;69.08;97173.78;4944841;29;20141;-78
2021/01/10 10:49:41;;;;;;;18.10;9.85;;;;;;;0.16;69.38;97167.81;4944376;29;20055;-80
2021/01/10 10:52:09;;;;;;;13.98;10.32;;;;;;;0.16;69.16;97172.97;4943875;29;20569;-78
2021/01/10 10:54:36;;;;;;;14.90;9.88;;;;;;;0.18;69.34;97176.25;4943915;29;20516;-81
2021/01/10 10:57:05;;;;;;;15.60;11.02;;;;;;;0.23;70.38;97174.19;4944651;29;20043;-80
2021/01/10 10:59:32;;;;;;;13.63;9.30;;;;;;;0.28;69.75;97172.13;4943464;29;20055;-78
2021/01/10 11:01:58;;;;;;;15.98;10.35;;;;;;;0.31;69.78;97171.13;4943464;29;20421;-79
2021/01/10 11:04:25;;;;;;;15.00;10.13;;;;;;;0.32;70.01;97176.13;4944055;29;20066;-78
2021/01/10 11:06:52;;;;;;;13.95;9.23;;;;;;;0.35;69.63;97168.22;4945147;29;20115;-82
2021/01/10 11:09:18;;;;;;;15.23;10.05;;;;;;;0.35;69.34;97163.09;4955191;29;20099;-81
2021/01/10 11:11:47;;;;;;;12.80;8.75;;;;;;;0.36;69.17;97161.34;4956428;29;20137;-81
2021/01/10 11:14:16;;;;;;;13.27;9.30;;;;;;;0.37;69.19;97158.69;4954998;29;20130;-81
2021/01/10 11:16:46;;;;;;;14.23;9.52;;;;;;;0.39;69.31;97151.69;4949071;29;20047;-79
2021/01/10 11:19:14;;;;;;;14.75;9.45;;;;;;;0.43;69.33;97149.72;4944119;29;20095;-79
2021/01/10 11:21:42;;;;;;;13.55;10.13;;;;;;;0.41;69.25;97142.13;4944528;29;20056;-80
2021/01/10 11:24:10;;;;;;;13.43;9.05;;;;;;;0.40;69.21;97135.38;4945667;29;20052;-80
2021/01/10 11:26:37;;;;;;;12.80;8.57;;;;;;;0.39;69.19;97138.88;4949445;29;20434;-81
2021/01/10 11:29:04;;;;;;;11.93;8.23;;;;;;;0.37;69.12;97132.19;4943837;29;20107;-84
2021/01/10 11:31:33;;;;;;;12.13;8.13;;;;;;;0.37;69.04;97133.00;4947865;29;20083;-82
2021/01/10 11:34:00;;;;;;;13.35;8.50;;;;;;;0.36;69.14;97133.94;4946994;29;20083;-80
2021/01/10 11:36:26;;;;;;;10.30;8.45;;;;;;;0.35;68.78;97124.59;4946507;29;20056;-82
2021/01/10 11:38:54;;;;;;;12.63;8.50;;;;;;;0.35;69.31;97128.88;4945934;29;20507;-79
2021/01/10 11:41:22;;;;;;;13.02;9.10;;;;;;;0.36;69.30;97123.66;4944093;29;20055;-78
2021/01/10 11:43:50;;;;;;;12.73;8.93;;;;;;;0.36;69.17;97123.66;4943043;29;20545;-80
2021/01/10 11:46:18;;;;;;;12.07;8.45;;;;;;;0.37;69.19;97125.31;4943216;29;20059;-81